Time;durP1;ratioP1;P1;durP2;ratioP2;P2;SDS_P1;SDS_P2;PMS_P1;PMS_P2;Temp;Humidity;BMP_temperature;BMP_pressure;BME280_temperature;BME280_humidity;BME280_pressure;Samples;Min_cycle;Max_cycle;Signal;HPM_P1;HPM_P2
2023/06/22 00:00:27;;;;;;;;;;;19.80;99.90;;;;;;5067645;28;19916;-53
2023/06/22 00:02:52;;;;;;;;;;;19.80;99.90;;;;;;5059064;28;19962;-51
2023/06/22 00:05:18;;;;;;;;;;;19.80;99.90;;;;;;5054184;28;20050;-55
2023/06/22 00:07:43;;;;;;;;;;;19.70;99.90;;;;;;5049296;28;19921;-53
2023/06/22 00:10:09;;;;;;;;;;;19.70;99.90;;;;;;5049640;28;19924;-51
2023/06/22 00:12:34;;;;;;;;;;;19.70;99.90;;;;;;5060706;28;19962;-51
2023/06/22 00:14:59;;;;;;;;;;;19.70;99.90;;;;;;5053239;28;19927;-54
2023/06/22 00:17:25;;;;;;;;;;;19.70;99.90;;;;;;5049120;28;20403;-52
2023/06/22 00:19:53;;;;;;;;;;;19.70;99.90;;;;;;5048656;28;19923;-51
2023/06/22 00:22:27;;;;;;;;;;;19.70;99.90;;;;;;5049610;28;20010;-54
2023/06/22 00:24:54;;;;;;;;;;;19.70;99.90;;;;;;5054639;28;20491;-56
2023/06/22 00:27:19;;;;;;;;;;;19.60;99.90;;;;;;5050401;28;20004;-51
2023/06/22 00:29:45;;;;;;;;;;;19.60;99.90;;;;;;5048451;28;20054;-54
2023/06/22 00:32:10;;;;;;;;;;;19.60;99.90;;;;;;5049369;28;19916;-54
2023/06/22 00:34:35;;;;;;;;;;;19.60;99.90;;;;;;5050385;28;19921;-51
2023/06/22 00:37:01;;;;;;;;;;;19.60;99.90;;;;;;5049704;28;19999;-56
2023/06/22 00:39:26;;;;;;;;;;;19.60;99.90;;;;;;5047951;28;19925;-57
2023/06/22 00:41:52;;;;;;;;;;;19.50;99.90;;;;;;5049313;28;20004;-53
2023/06/22 00:44:18;;;;;;;;;;;19.40;99.90;;;;;;5050580;28;20301;-51
2023/06/22 00:46:43;;;;;;;;;;;19.40;99.90;;;;;;5048970;28;20298;-55
2023/06/22 00:49:09;;;;;;;;;;;19.40;99.90;;;;;;5048236;28;19939;-51
2023/06/22 00:51:37;;;;;;;;;;;19.40;99.90;;;;;;5066362;28;19916;-54
2023/06/22 00:54:05;;;;;;;;;;;19.40;99.90;;;;;;5066557;28;19951;-54
2023/06/22 00:56:30;;;;;;;;;;;19.40;99.90;;;;;;5066805;28;19923;-51
2023/06/22 00:58:57;;;;;;;;;;;19.30;99.90;;;;;;5064172;28;20317;-56
2023/06/22 01:01:23;;;;;;;;;;;19.40;99.90;;;;;;5053774;28;19917;-56
2023/06/22 01:03:50;;;;;;;;;;;19.30;99.90;;;;;;5052465;28;19927;-53
2023/06/22 01:06:18;;;;;;;;;;;19.30;99.90;;;;;;5052487;28;20373;-51
2023/06/22 01:08:44;;;;;;;;;;;19.30;99.90;;;;;;5062132;28;19924;-52
2023/06/22 01:11:13;;;;;;;;;;;19.20;99.90;;;;;;5066602;28;19929;-54
2023/06/22 01:13:48;;;;;;;;;;;19.20;99.90;;;;;;5062500;28;20416;-53
2023/06/22 01:16:19;;;;;;;;;;;19.20;99.90;;;;;;5055078;28;20365;-55
2023/06/22 01:18:44;;;;;;;;;;;19.20;99.90;;;;;;5053197;28;19951;-52
2023/06/22 01:21:18;;;;;;;;;;;19.20;99.90;;;;;;5052248;28;19952;-55
2023/06/22 01:24:02;;;;;;;;;;;19.20;99.90;;;;;;5052689;28;19925;-55
2023/06/22 01:26:34;;;;;;;;;;;19.20;99.90;;;;;;5051444;28;20007;-54
2023/06/22 01:29:03;;;;;;;;;;;19.20;99.90;;;;;;5051771;28;19963;-55
2023/06/22 01:31:29;;;;;;;;;;;19.20;99.90;;;;;;5059645;28;19939;-51
2023/06/22 01:34:00;;;;;;;;;;;19.20;99.90;;;;;;5069398;28;19916;-51
2023/06/22 01:36:26;;;;;;;;;;;19.10;99.90;;;;;;5070062;28;19928;-53
2023/06/22 01:38:52;;;;;;;;;;;19.10;99.90;;;;;;5055068;28;19956;-56
2023/06/22 01:41:19;;;;;;;;;;;19.10;99.90;;;;;;5051974;28;19964;-54
2023/06/22 01:43:45;;;;;;;;;;;19.10;99.90;;;;;;5070586;28;19916;-55
2023/06/22 01:46:11;;;;;;;;;;;19.00;99.90;;;;;;5070413;28;19916;-54
2023/06/22 01:48:37;;;;;;;;;;;19.00;99.90;;;;;;5068484;28;19965;-51
2023/06/22 01:51:03;;;;;;;;;;;19.00;99.90;;;;;;5068604;28;20347;-51
2023/06/22 01:53:28;;;;;;;;;;;19.00;99.90;;;;;;5069611;28;19920;-55
2023/06/22 01:55:54;;;;;;;;;;;19.10;99.90;;;;;;5069720;28;20159;-50
2023/06/22 01:58:20;;;;;;;;;;;19.00;99.90;;;;;;5062690;28;19923;-51
2023/06/22 02:00:50;;;;;;;;;;;19.10;99.90;;;;;;5053280;28;20305;-51
2023/06/22 02:03:19;;;;;;;;;;;19.00;99.90;;;;;;5059502;28;20393;-54
2023/06/22 02:06:20;;;;;;;;;;;19.00;99.90;;;;;;5051296;28;19917;-53
2023/06/22 02:08:48;;;;;;;;;;;19.00;99.90;;;;;;5011572;28;19971;-51
2023/06/22 02:11:15;;;;;;;;;;;19.10;99.90;;;;;;5013785;28;20282;-51
2023/06/22 02:13:43;;;;;;;;;;;19.10;99.90;;;;;;5027091;28;19964;-54
2023/06/22 02:16:10;;;;;;;;;;;19.00;99.90;;;;;;5026433;28;19965;-53
2023/06/22 02:18:36;;;;;;;;;;;18.90;99.90;;;;;;5017478;28;19978;-54
2023/06/22 02:21:01;;;;;;;;;;;18.90;99.90;;;;;;5017588;28;20353;-52
2023/06/22 02:23:27;;;;;;;;;;;18.80;99.90;;;;;;5020042;28;20369;-51
2023/06/22 02:25:52;;;;;;;;;;;18.80;99.90;;;;;;5020720;28;19933;-51
2023/06/22 02:28:18;;;;;;;;;;;18.80;99.90;;;;;;5023633;28;19924;-56
2023/06/22 02:30:43;;;;;;;;;;;18.80;99.90;;;;;;5024047;28;19921;-53
2023/06/22 02:33:09;;;;;;;;;;;18.80;99.90;;;;;;5025937;28;19919;-51
2023/06/22 02:35:35;;;;;;;;;;;18.80;99.90;;;;;;5012110;28;20345;-55
2023/06/22 02:38:02;;;;;;;;;;;18.70;99.90;;;;;;5008139;28;20436;-54
2023/06/22 02:40:29;;;;;;;;;;;18.70;99.90;;;;;;5009283;28;20347;-54
2023/06/22 02:42:54;;;;;;;;;;;18.70;99.90;;;;;;5032384;28;19916;-52
2023/06/22 02:45:20;;;;;;;;;;;18.70;99.90;;;;;;5052881;28;19940;-52
2023/06/22 02:47:47;;;;;;;;;;;18.60;99.90;;;;;;5049689;28;20397;-51
2023/06/22 02:50:13;;;;;;;;;;;18.60;99.90;;;;;;5054171;28;19939;-52
2023/06/22 02:52:39;;;;;;;;;;;18.60;99.90;;;;;;5068697;28;19916;-55
2023/06/22 02:55:05;;;;;;;;;;;18.50;99.90;;;;;;5068533;28;19951;-51
2023/06/22 02:57:30;;;;;;;;;;;18.40;99.90;;;;;;5068038;28;19916;-54
2023/06/22 02:59:56;;;;;;;;;;;18.30;99.90;;;;;;5067154;28;19920;-53
2023/06/22 03:02:21;;;;;;;;;;;18.20;99.90;;;;;;5067909;28;19977;-54
2023/06/22 03:04:48;;;;;;;;;;;18.10;99.90;;;;;;5050633;28;20019;-51
2023/06/22 03:07:14;;;;;;;;;;;18.00;99.90;;;;;;5050600;28;20306;-54
2023/06/22 03:09:39;;;;;;;;;;;18.00;99.90;;;;;;5049657;28;19931;-50
2023/06/22 03:12:05;;;;;;;;;;;17.90;99.90;;;;;;5067122;28;19970;-54
2023/06/22 03:14:30;;;;;;;;;;;17.80;99.90;;;;;;5068124;28;19924;-56
2023/06/22 03:17:01;;;;;;;;;;;17.70;99.90;;;;;;5067493;28;19920;-50
2023/06/22 03:19:29;;;;;;;;;;;17.70;99.90;;;;;;5057434;28;19994;-54
2023/06/22 03:21:54;;;;;;;;;;;17.60;99.90;;;;;;5050324;28;19917;-56
2023/06/22 03:24:20;;;;;;;;;;;17.60;99.90;;;;;;5049433;28;19971;-50
2023/06/22 03:26:46;;;;;;;;;;;17.70;99.90;;;;;;5049850;28;20335;-52
2023/06/22 03:29:12;;;;;;;;;;;17.70;99.90;;;;;;5062135;28;20396;-53
2023/06/22 03:31:37;;;;;;;;;;;17.70;99.90;;;;;;5067513;28;19920;-54
2023/06/22 03:34:03;;;;;;;;;;;17.70;99.90;;;;;;5067815;28;19938;-54
2023/06/22 03:36:28;;;;;;;;;;;17.60;99.90;;;;;;5048181;28;20007;-53
2023/06/22 03:38:54;;;;;;;;;;;17.60;99.90;;;;;;5054043;28;19947;-51
2023/06/22 03:41:20;;;;;;;;;;;17.60;99.90;;;;;;5063520;28;20011;-53
2023/06/22 03:43:45;;;;;;;;;;;17.60;99.90;;;;;;5062951;28;19924;-50
2023/06/22 03:46:11;;;;;;;;;;;17.70;99.90;;;;;;5066973;28;19923;-54
2023/06/22 03:48:36;;;;;;;;;;;17.70;99.90;;;;;;5059385;28;19928;-53
2023/06/22 03:51:03;;;;;;;;;;;17.70;99.90;;;;;;5050521;28;19920;-56
2023/06/22 03:53:28;;;;;;;;;;;17.70;99.90;;;;;;5048685;28;20035;-53
2023/06/22 03:55:54;;;;;;;;;;;17.70;99.90;;;;;;5049758;28;19917;-54
2023/06/22 03:58:20;;;;;;;;;;;17.80;99.90;;;;;;5051420;28;20154;-51
2023/06/22 04:00:46;;;;;;;;;;;17.80;99.90;;;;;;5049267;28;19955;-51
2023/06/22 04:03:12;;;;;;;;;;;17.90;99.90;;;;;;5049814;28;19923;-52
2023/06/22 04:05:38;;;;;;;;;;;17.80;99.90;;;;;;5049764;28;20273;-51
2023/06/22 04:08:04;;;;;;;;;;;17.80;99.90;;;;;;5048832;28;19921;-50
2023/06/22 04:10:29;;;;;;;;;;;17.80;99.90;;;;;;5050639;28;20295;-50
2023/06/22 04:12:55;;;;;;;;;;;17.80;99.90;;;;;;5049662;28;19916;-56
2023/06/22 04:15:20;;;;;;;;;;;17.80;99.90;;;;;;5048813;28;20389;-56
2023/06/22 04:17:46;;;;;;;;;;;17.80;99.90;;;;;;5055612;28;19927;-50
2023/06/22 04:20:11;;;;;;;;;;;17.90;99.90;;;;;;5049080;28;19956;-53
2023/06/22 04:22:37;;;;;;;;;;;17.90;99.90;;;;;;5049828;28;19917;-53
2023/06/22 04:25:02;;;;;;;;;;;17.90;99.90;;;;;;5048773;28;19936;-51
2023/06/22 04:27:28;;;;;;;;;;;18.00;99.90;;;;;;5051601;28;20331;-52
2023/06/22 04:29:53;;;;;;;;;;;18.00;99.90;;;;;;5048852;28;19924;-51
2023/06/22 04:32:19;;;;;;;;;;;18.00;99.90;;;;;;5049481;28;19920;-51
2023/06/22 04:34:44;;;;;;;;;;;17.90;99.90;;;;;;5051280;28;20187;-54
2023/06/22 04:37:15;;;;;;;;;;;18.00;99.90;;;;;;5064160;28;19924;-54
2023/06/22 04:39:41;;;;;;;;;;;18.00;99.90;;;;;;5070543;28;19924;-55
2023/06/22 04:42:07;;;;;;;;;;;18.00;99.90;;;;;;5053176;28;19942;-53
2023/06/22 04:44:32;;;;;;;;;;;18.10;99.90;;;;;;5052579;28;20362;-53
2023/06/22 04:47:03;;;;;;;;;;;18.10;99.90;;;;;;5066038;28;19927;-52
2023/06/22 04:49:32;;;;;;;;;;;18.10;99.90;;;;;;5069889;28;19929;-54
2023/06/22 04:51:58;;;;;;;;;;;18.00;99.90;;;;;;5058703;28;19916;-50
2023/06/22 04:54:24;;;;;;;;;;;18.00;99.90;;;;;;5054761;28;19916;-52
2023/06/22 04:56:56;;;;;;;;;;;18.00;99.90;;;;;;5060825;28;19974;-51
2023/06/22 04:59:22;;;;;;;;;;;18.00;99.90;;;;;;5052901;28;19920;-51
2023/06/22 05:01:47;;;;;;;;;;;18.00;99.90;;;;;;5054953;28;20232;-52
2023/06/22 05:04:13;;;;;;;;;;;18.10;99.90;;;;;;5054703;28;20003;-51
2023/06/22 05:06:39;;;;;;;;;;;18.10;99.90;;;;;;5057594;28;20104;-52
2023/06/22 05:09:05;;;;;;;;;;;18.20;99.90;;;;;;5066899;28;20464;-51
2023/06/22 05:11:30;;;;;;;;;;;18.20;99.90;;;;;;5063745;28;20320;-52
2023/06/22 05:13:56;;;;;;;;;;;18.30;99.90;;;;;;5069183;28;19916;-52
2023/06/22 05:16:24;;;;;;;;;;;18.30;99.90;;;;;;5057608;28;19916;-50
2023/06/22 05:18:50;;;;;;;;;;;18.50;99.90;;;;;;5053156;28;19916;-51
2023/06/22 05:21:15;;;;;;;;;;;18.60;99.90;;;;;;5068229;28;19931;-51
2023/06/22 05:23:41;;;;;;;;;;;18.70;99.90;;;;;;5067972;28;19917;-51
2023/06/22 05:26:09;;;;;;;;;;;18.80;99.90;;;;;;5053887;28;19971;-51
2023/06/22 05:28:34;;;;;;;;;;;18.90;99.90;;;;;;5050930;28;19916;-54
2023/06/22 05:31:00;;;;;;;;;;;19.00;99.90;;;;;;5065745;28;20243;-52
2023/06/22 05:33:25;;;;;;;;;;;19.10;99.90;;;;;;5069242;28;19921;-53
2023/06/22 05:35:51;;;;;;;;;;;19.10;99.90;;;;;;5067030;28;19916;-56
2023/06/22 05:38:16;;;;;;;;;;;19.20;99.90;;;;;;5069829;28;19921;-51
2023/06/22 05:40:42;;;;;;;;;;;19.30;99.90;;;;;;5066800;28;19916;-53
2023/06/22 05:43:07;;;;;;;;;;;19.40;99.90;;;;;;5066231;28;20369;-53
2023/06/22 05:45:33;;;;;;;;;;;19.50;99.90;;;;;;5059726;28;20262;-56
2023/06/22 05:47:58;;;;;;;;;;;19.60;99.90;;;;;;5068985;28;20041;-52
2023/06/22 05:50:24;;;;;;;;;;;19.60;99.90;;;;;;5062853;28;19921;-53
2023/06/22 05:52:49;;;;;;;;;;;19.70;99.90;;;;;;5056631;28;20017;-55
2023/06/22 05:55:15;;;;;;;;;;;19.70;99.90;;;;;;5063206;28;19917;-51
2023/06/22 05:57:40;;;;;;;;;;;19.80;99.90;;;;;;5051400;28;19917;-51
2023/06/22 06:00:10;;;;;;;;;;;19.80;99.90;;;;;;5057144;28;19920;-52
2023/06/22 06:02:35;;;;;;;;;;;19.90;99.90;;;;;;5065275;28;20393;-56
2023/06/22 06:05:02;;;;;;;;;;;20.00;99.90;;;;;;5063388;28;19916;-51
2023/06/22 06:07:28;;;;;;;;;;;20.00;99.90;;;;;;5051347;28;19921;-54
2023/06/22 06:09:53;;;;;;;;;;;20.10;99.90;;;;;;5057892;28;20023;-50
2023/06/22 06:12:19;;;;;;;;;;;20.20;99.90;;;;;;5052774;28;20382;-54
2023/06/22 06:14:44;;;;;;;;;;;20.20;99.90;;;;;;5051800;28;19921;-53
2023/06/22 06:17:10;;;;;;;;;;;20.30;99.90;;;;;;5068800;28;20185;-52
2023/06/22 06:19:35;;;;;;;;;;;20.40;99.90;;;;;;5066462;28;20287;-52
2023/06/22 06:22:01;;;;;;;;;;;20.40;99.90;;;;;;5060082;28;19916;-54
2023/06/22 06:24:26;;;;;;;;;;;20.50;99.90;;;;;;5055632;28;19934;-51
2023/06/22 06:26:52;;;;;;;;;;;20.50;99.90;;;;;;5066072;28;19973;-51
2023/06/22 06:29:17;;;;;;;;;;;20.60;99.90;;;;;;5067225;28;19927;-56
2023/06/22 06:31:42;;;;;;;;;;;20.60;99.90;;;;;;5068301;28;19969;-53
2023/06/22 06:34:08;;;;;;;;;;;20.70;99.90;;;;;;5056352;28;19923;-51
2023/06/22 06:36:33;;;;;;;;;;;20.80;99.90;;;;;;5061459;28;19966;-53
2023/06/22 06:38:59;;;;;;;;;;;20.80;99.90;;;;;;5066613;28;20069;-54
2023/06/22 06:41:24;;;;;;;;;;;20.90;99.90;;;;;;5058622;28;20423;-52
2023/06/22 06:43:50;;;;;;;;;;;20.90;99.90;;;;;;5052329;28;19917;-54
2023/06/22 06:46:15;;;;;;;;;;;20.90;99.90;;;;;;5057373;28;20010;-52
2023/06/22 06:48:41;;;;;;;;;;;20.90;99.90;;;;;;5066573;28;20013;-55
2023/06/22 06:51:09;;;;;;;;;;;20.90;99.90;;;;;;5055865;28;20051;-50
2023/06/22 06:53:35;;;;;;;;;;;20.90;99.90;;;;;;5053133;28;19923;-54
2023/06/22 06:56:00;;;;;;;;;;;20.90;99.90;;;;;;5053063;28;19916;-52
2023/06/22 06:58:26;;;;;;;;;;;20.90;99.90;;;;;;5067211;28;19920;-51
2023/06/22 07:00:51;;;;;;;;;;;20.90;99.90;;;;;;5066015;28;19943;-53
2023/06/22 07:03:17;;;;;;;;;;;20.90;99.90;;;;;;5067866;28;19973;-52
2023/06/22 07:05:42;;;;;;;;;;;21.00;99.90;;;;;;5067561;28;19916;-52
2023/06/22 07:08:08;;;;;;;;;;;21.00;99.90;;;;;;5055739;28;19964;-53
2023/06/22 07:10:33;;;;;;;;;;;21.10;99.90;;;;;;5054537;28;19931;-51
2023/06/22 07:12:59;;;;;;;;;;;21.20;99.90;;;;;;5065874;28;19923;-51
2023/06/22 07:15:25;;;;;;;;;;;21.30;99.90;;;;;;5064766;28;19935;-55
2023/06/22 07:17:50;;;;;;;;;;;21.40;99.90;;;;;;5059037;28;19920;-54
2023/06/22 07:20:15;;;;;;;;;;;21.50;99.90;;;;;;5051723;28;20011;-53
2023/06/22 07:22:42;;;;;;;;;;;21.60;99.90;;;;;;5064342;28;19916;-53
2023/06/22 07:25:14;;;;;;;;;;;21.60;99.90;;;;;;5067999;28;20014;-54
2023/06/22 07:27:45;;;;;;;;;;;21.70;99.90;;;;;;5057575;28;19917;-51
2023/06/22 07:30:11;;;;;;;;;;;21.80;99.90;;;;;;5054829;28;20374;-52
2023/06/22 07:32:36;;;;;;;;;;;21.80;99.90;;;;;;5062718;28;19920;-54
2023/06/22 07:35:02;;;;;;;;;;;21.80;99.90;;;;;;5053105;28;19923;-51
2023/06/22 07:37:28;;;;;;;;;;;21.80;99.90;;;;;;5055158;28;19916;-52
2023/06/22 07:39:58;;;;;;;;;;;21.90;99.90;;;;;;5054951;28;19917;-51
2023/06/22 07:42:27;;;;;;;;;;;22.00;99.90;;;;;;5054360;28;19917;-50
2023/06/22 07:44:53;;;;;;;;;;;22.10;99.90;;;;;;5052065;28;19917;-57
2023/06/22 07:47:19;;;;;;;;;;;22.20;99.90;;;;;;5053411;28;19940;-51
2023/06/22 07:49:45;;;;;;;;;;;22.20;99.90;;;;;;5048435;28;19925;-51
2023/06/22 07:52:10;;;;;;;;;;;22.30;99.90;;;;;;5057046;28;19920;-50
2023/06/22 07:54:36;;;;;;;;;;;22.40;99.90;;;;;;5067618;28;20454;-50
2023/06/22 07:57:02;;;;;;;;;;;22.50;99.90;;;;;;5057876;28;19940;-54
2023/06/22 07:59:27;;;;;;;;;;;22.50;99.90;;;;;;5055875;28;19999;-53
2023/06/22 08:01:53;;;;;;;;;;;22.60;99.90;;;;;;5064360;28;19921;-50
2023/06/22 08:04:18;;;;;;;;;;;22.70;99.90;;;;;;5050524;28;19989;-53
2023/06/22 08:06:44;;;;;;;;;;;22.70;99.90;;;;;;5055250;28;20041;-51
2023/06/22 08:09:09;;;;;;;;;;;22.80;99.90;;;;;;5053503;28;19923;-48
2023/06/22 08:11:34;;;;;;;;;;;22.90;99.90;;;;;;5055864;28;19943;-52
2023/06/22 08:14:00;;;;;;;;;;;22.90;99.90;;;;;;5069593;28;19927;-54
2023/06/22 08:16:25;;;;;;;;;;;22.90;99.90;;;;;;5058498;28;19920;-54
2023/06/22 08:18:51;;;;;;;;;;;23.00;99.90;;;;;;5070724;28;19925;-52
2023/06/22 08:21:16;;;;;;;;;;;23.10;99.90;;;;;;5064339;28;19927;-55
2023/06/22 08:23:42;;;;;;;;;;;23.20;99.90;;;;;;5055065;28;19923;-56
2023/06/22 08:26:07;;;;;;;;;;;23.20;99.90;;;;;;5064411;28;19989;-51
2023/06/22 08:28:33;;;;;;;;;;;23.30;99.90;;;;;;5052815;28;19963;-55
2023/06/22 08:30:59;;;;;;;;;;;23.30;99.90;;;;;;5061300;28;20091;-51
2023/06/22 08:33:28;;;;;;;;;;;23.40;99.90;;;;;;5058531;28;19916;-53
2023/06/22 08:35:58;;;;;;;;;;;23.50;99.90;;;;;;5068734;28;20020;-56
2023/06/22 08:38:23;;;;;;;;;;;23.50;99.90;;;;;;5052229;28;19970;-50
2023/06/22 08:40:49;;;;;;;;;;;23.60;99.90;;;;;;5055401;28;19924;-50
2023/06/22 08:43:14;;;;;;;;;;;23.60;99.90;;;;;;5065927;28;20362;-50
2023/06/22 08:45:40;;;;;;;;;;;23.70;99.90;;;;;;5054496;28;20076;-52
2023/06/22 08:48:05;;;;;;;;;;;23.80;99.90;;;;;;5055463;28;19962;-50
2023/06/22 08:50:31;;;;;;;;;;;23.90;99.90;;;;;;5053975;28;20308;-49
2023/06/22 08:52:56;;;;;;;;;;;23.90;99.90;;;;;;5057842;28;20329;-55
2023/06/22 08:55:22;;;;;;;;;;;24.00;99.90;;;;;;5065782;28;19924;-50
2023/06/22 08:57:47;;;;;;;;;;;24.10;99.90;;;;;;5063520;28;20012;-50
2023/06/22 09:00:20;;;;;;;;;;;24.10;99.90;;;;;;5064132;28;19978;-53
2023/06/22 09:02:46;;;;;;;;;;;24.10;99.90;;;;;;5061781;28;20297;-51
2023/06/22 09:05:11;;;;;;;;;;;24.20;99.90;;;;;;5053480;28;19923;-51
2023/06/22 09:07:37;;;;;;;;;;;24.30;99.90;;;;;;5061173;28;19924;-50
2023/06/22 09:10:06;;;;;;;;;;;24.40;99.90;;;;;;5060403;28;19921;-55
2023/06/22 09:12:32;;;;;;;;;;;24.40;99.90;;;;;;5063111;28;19936;-54
2023/06/22 09:15:00;;;;;;;;;;;24.50;99.90;;;;;;5054201;28;19976;-53
2023/06/22 09:17:25;;;;;;;;;;;24.60;99.90;;;;;;5065471;28;19939;-53
2023/06/22 09:19:51;;;;;;;;;;;24.70;99.90;;;;;;5057761;28;19917;-50
2023/06/22 09:22:16;;;;;;;;;;;24.70;99.90;;;;;;5055722;28;19921;-51
2023/06/22 09:24:42;;;;;;;;;;;24.80;99.90;;;;;;5069085;28;20376;-50
2023/06/22 09:27:07;;;;;;;;;;;24.90;99.90;;;;;;5066724;28;19927;-47
2023/06/22 09:29:33;;;;;;;;;;;24.90;99.90;;;;;;5056194;28;19924;-49
2023/06/22 09:31:59;;;;;;;;;;;25.00;99.90;;;;;;5053785;28;19925;-47
2023/06/22 09:34:25;;;;;;;;;;;25.10;99.60;;;;;;5067341;28;20018;-49
2023/06/22 09:36:50;;;;;;;;;;;25.00;99.90;;;;;;5065845;28;19990;-51
2023/06/22 09:39:17;;;;;;;;;;;25.10;99.90;;;;;;5062676;28;19960;-49
2023/06/22 09:41:43;;;;;;;;;;;25.10;99.40;;;;;;5057055;28;19943;-49
2023/06/22 09:44:08;;;;;;;;;;;25.10;99.30;;;;;;5065509;28;20392;-52
2023/06/22 09:46:34;;;;;;;;;;;25.20;99.50;;;;;;5065935;28;19924;-49
2023/06/22 09:48:59;;;;;;;;;;;25.20;99.50;;;;;;5058660;28;19917;-51
2023/06/22 09:51:25;;;;;;;;;;;25.30;99.40;;;;;;5060529;28;20029;-51
2023/06/22 09:53:51;;;;;;;;;;;25.30;99.00;;;;;;5060592;28;19986;-54
2023/06/22 09:56:16;;;;;;;;;;;25.40;99.50;;;;;;5062223;28;19920;-49
2023/06/22 09:58:42;;;;;;;;;;;25.40;99.10;;;;;;5053474;28;20008;-50
2023/06/22 10:01:08;;;;;;;;;;;25.50;98.70;;;;;;5052752;28;19942;-55
2023/06/22 10:03:33;;;;;;;;;;;25.50;98.60;;;;;;5060452;28;19916;-52
2023/06/22 10:05:59;;;;;;;;;;;25.60;99.10;;;;;;5054854;28;19916;-55
2023/06/22 10:08:24;;;;;;;;;;;25.60;98.40;;;;;;5061060;28;19939;-49
2023/06/22 10:10:50;;;;;;;;;;;25.70;98.30;;;;;;5060151;28;20390;-51
2023/06/22 10:13:16;;;;;;;;;;;25.80;97.50;;;;;;5064796;28;19964;-50
2023/06/22 10:15:41;;;;;;;;;;;25.80;97.90;;;;;;5060183;28;19962;-52
2023/06/22 10:18:07;;;;;;;;;;;25.80;97.30;;;;;;5056133;28;19920;-50
2023/06/22 10:20:32;;;;;;;;;;;25.80;97.50;;;;;;5062696;28;19916;-50
2023/06/22 10:22:58;;;;;;;;;;;25.90;97.60;;;;;;5055756;28;19999;-50
2023/06/22 10:25:24;;;;;;;;;;;25.90;97.60;;;;;;5063201;28;19917;-52
2023/06/22 10:27:49;;;;;;;;;;;26.00;97.60;;;;;;5051668;28;20339;-50
2023/06/22 10:30:15;;;;;;;;;;;26.00;97.10;;;;;;5066543;28;20361;-53
2023/06/22 10:32:42;;;;;;;;;;;26.10;97.40;;;;;;5054912;28;19921;-50
2023/06/22 10:35:07;;;;;;;;;;;26.20;97.10;;;;;;5065692;28;19967;-51
2023/06/22 10:37:33;;;;;;;;;;;26.20;97.70;;;;;;5063976;28;19960;-52
2023/06/22 10:39:59;;;;;;;;;;;26.30;97.30;;;;;;5063997;28;19916;-49
2023/06/22 10:42:24;;;;;;;;;;;26.50;97.20;;;;;;5058239;28;20393;-52
2023/06/22 10:44:50;;;;;;;;;;;26.50;96.30;;;;;;5051716;28;20400;-50
2023/06/22 10:47:15;;;;;;;;;;;26.60;96.20;;;;;;5051179;28;19916;-50
2023/06/22 10:49:41;;;;;;;;;;;26.70;96.30;;;;;;5059118;28;20346;-50
2023/06/22 10:52:07;;;;;;;;;;;26.70;96.20;;;;;;5067994;28;19927;-50
2023/06/22 10:54:33;;;;;;;;;;;26.70;95.80;;;;;;5065475;28;19916;-51
2023/06/22 10:56:59;;;;;;;;;;;26.60;95.40;;;;;;5068850;28;19956;-50
2023/06/22 10:59:25;;;;;;;;;;;26.60;95.60;;;;;;5061626;28;19935;-52
2023/06/22 11:01:51;;;;;;;;;;;26.60;95.40;;;;;;5053247;28;19917;-51
2023/06/22 11:04:17;;;;;;;;;;;26.60;94.80;;;;;;5057414;28;19943;-50
2023/06/22 11:06:43;;;;;;;;;;;26.60;94.40;;;;;;5055133;28;20262;-55
2023/06/22 11:09:08;;;;;;;;;;;26.60;94.90;;;;;;5057406;28;20439;-52
2023/06/22 11:11:34;;;;;;;;;;;26.50;94.90;;;;;;5059667;28;19929;-53
2023/06/22 11:14:00;;;;;;;;;;;26.50;95.20;;;;;;5056262;28;20369;-50
2023/06/22 11:16:25;;;;;;;;;;;26.40;94.20;;;;;;5060904;28;19970;-50
2023/06/22 11:18:51;;;;;;;;;;;26.40;94.30;;;;;;5065164;28;19920;-51
2023/06/22 11:21:16;;;;;;;;;;;26.30;94.10;;;;;;5057097;28;19968;-50
2023/06/22 11:23:42;;;;;;;;;;;26.30;94.30;;;;;;5051131;28;19947;-49
2023/06/22 11:26:07;;;;;;;;;;;26.30;94.50;;;;;;5051959;28;19920;-52
2023/06/22 11:28:33;;;;;;;;;;;26.30;94.50;;;;;;5065651;28;19920;-49
2023/06/22 11:30:58;;;;;;;;;;;26.30;94.30;;;;;;5053119;28;20285;-49
2023/06/22 11:33:24;;;;;;;;;;;26.30;94.60;;;;;;5062090;28;19920;-49
2023/06/22 11:35:49;;;;;;;;;;;26.20;94.00;;;;;;5056232;28;19916;-55
2023/06/22 11:38:15;;;;;;;;;;;26.20;94.00;;;;;;5050686;28;19916;-50
2023/06/22 11:40:40;;;;;;;;;;;26.20;94.10;;;;;;5053275;28;19962;-51
2023/06/22 11:43:06;;;;;;;;;;;26.20;94.40;;;;;;5050305;28;19927;-54
2023/06/22 11:45:31;;;;;;;;;;;26.20;94.00;;;;;;5058999;28;19970;-50
2023/06/22 11:47:57;;;;;;;;;;;26.20;94.10;;;;;;5052863;28;19916;-51
2023/06/22 11:50:22;;;;;;;;;;;26.20;93.90;;;;;;5059556;28;19921;-53
2023/06/22 11:52:48;;;;;;;;;;;26.20;94.00;;;;;;5056965;28;19951;-53
2023/06/22 11:55:13;;;;;;;;;;;26.20;93.90;;;;;;5058691;28;19916;-50
2023/06/22 11:57:52;;;;;;;;;;;26.20;93.90;;;;;;5052358;28;19971;-52
2023/06/22 12:00:18;;;;;;;;;;;26.20;93.60;;;;;;5051233;28;19999;-50
2023/06/22 12:02:47;;;;;;;;;;;26.20;93.50;;;;;;5058411;28;20196;-50
2023/06/22 12:05:12;;;;;;;;;;;26.20;93.70;;;;;;5049596;28;19939;-54
2023/06/22 12:07:38;;;;;;;;;;;26.20;93.60;;;;;;5058258;28;19940;-50
2023/06/22 12:10:03;;;;;;;;;;;26.20;93.80;;;;;;5057665;28;20014;-52
2023/06/22 12:12:29;;;;;;;;;;;26.10;93.70;;;;;;5055659;28;19920;-51
2023/06/22 12:14:54;;;;;;;;;;;26.20;93.70;;;;;;5058925;28;20266;-52
2023/06/22 12:17:20;;;;;;;;;;;26.20;93.60;;;;;;5055612;28;19924;-50
2023/06/22 12:19:46;;;;;;;;;;;26.20;93.30;;;;;;5049287;28;19916;-52
2023/06/22 12:22:11;;;;;;;;;;;26.20;93.10;;;;;;5058775;28;19927;-55
2023/06/22 12:24:37;;;;;;;;;;;26.10;93.50;;;;;;5046881;28;19924;-50
2023/06/22 12:27:03;;;;;;;;;;;26.10;93.10;;;;;;5058337;28;20392;-50
2023/06/22 12:29:29;;;;;;;;;;;26.10;92.70;;;;;;5055851;28;19916;-49
2023/06/22 12:31:54;;;;;;;;;;;26.10;92.20;;;;;;5054756;28;19916;-50
2023/06/22 12:34:20;;;;;;;;;;;26.00;92.50;;;;;;5052327;28;19916;-53
2023/06/22 12:36:48;;;;;;;;;;;26.00;92.60;;;;;;5055862;28;19917;-52
2023/06/22 12:39:13;;;;;;;;;;;25.90;92.60;;;;;;5053423;28;19920;-50
2023/06/22 12:41:39;;;;;;;;;;;25.80;92.20;;;;;;5053923;28;19935;-53
2023/06/22 12:44:04;;;;;;;;;;;25.80;92.30;;;;;;5066843;28;20289;-51
2023/06/22 12:46:36;;;;;;;;;;;25.70;92.20;;;;;;5056983;28;19916;-52
2023/06/22 12:49:02;;;;;;;;;;;25.70;92.40;;;;;;5061552;28;19920;-50
2023/06/22 12:51:27;;;;;;;;;;;25.60;92.50;;;;;;5053929;28;19920;-50
2023/06/22 12:53:53;;;;;;;;;;;25.50;92.60;;;;;;5052452;28;20285;-50
2023/06/22 12:56:18;;;;;;;;;;;25.50;92.70;;;;;;5057528;28;19916;-49
2023/06/22 12:58:44;;;;;;;;;;;25.40;92.50;;;;;;5054760;28;19924;-52
2023/06/22 13:01:09;;;;;;;;;;;25.40;92.40;;;;;;5056521;28;20006;-50
2023/06/22 13:03:35;;;;;;;;;;;25.30;92.70;;;;;;5055700;28;20363;-50
2023/06/22 13:06:00;;;;;;;;;;;25.30;92.80;;;;;;5061730;28;20204;-51
2023/06/22 13:08:26;;;;;;;;;;;25.20;93.40;;;;;;5054097;28;19974;-52
2023/06/22 13:10:51;;;;;;;;;;;25.20;93.30;;;;;;5060296;28;20282;-52
2023/06/22 13:13:17;;;;;;;;;;;25.20;93.10;;;;;;5058434;28;19982;-50
2023/06/22 13:15:43;;;;;;;;;;;25.10;93.30;;;;;;5056283;28;19972;-54
2023/06/22 13:18:08;;;;;;;;;;;25.20;93.60;;;;;;5057432;28;20532;-51
2023/06/22 13:20:34;;;;;;;;;;;25.20;93.10;;;;;;5054706;28;20007;-53
2023/06/22 13:22:59;;;;;;;;;;;25.20;93.30;;;;;;5054851;28;19952;-50
2023/06/22 13:25:26;;;;;;;;;;;25.10;93.20;;;;;;5052762;28;19924;-52
2023/06/22 13:27:52;;;;;;;;;;;25.10;93.40;;;;;;5056941;28;19924;-51
2023/06/22 13:30:17;;;;;;;;;;;25.10;93.30;;;;;;5058525;28;19921;-52
2023/06/22 13:32:43;;;;;;;;;;;25.10;93.50;;;;;;5063148;28;20007;-50
2023/06/22 13:35:09;;;;;;;;;;;25.10;93.70;;;;;;5059145;28;19916;-50
2023/06/22 13:37:35;;;;;;;;;;;25.10;94.00;;;;;;5065210;28;20055;-51
2023/06/22 13:40:03;;;;;;;;;;;25.10;93.70;;;;;;5055012;28;20099;-49
2023/06/22 13:42:28;;;;;;;;;;;25.10;93.80;;;;;;5054312;28;19916;-49
2023/06/22 13:44:54;;;;;;;;;;;25.10;93.90;;;;;;5051019;28;20292;-52
2023/06/22 13:47:19;;;;;;;;;;;25.10;94.10;;;;;;5061089;28;20278;-52
2023/06/22 13:49:45;;;;;;;;;;;25.10;94.70;;;;;;5054942;28;20472;-48
2023/06/22 13:52:12;;;;;;;;;;;25.10;94.50;;;;;;5057967;28;19924;-49
2023/06/22 13:54:38;;;;;;;;;;;25.10;94.80;;;;;;5060488;28;19963;-52
2023/06/22 13:57:03;;;;;;;;;;;25.10;94.70;;;;;;5057097;28;19921;-49
2023/06/22 13:59:29;;;;;;;;;;;25.10;94.80;;;;;;5057467;28;19923;-48
2023/06/22 14:01:55;;;;;;;;;;;25.10;95.50;;;;;;5057493;28;19989;-49
2023/06/22 14:04:21;;;;;;;;;;;25.10;95.30;;;;;;5064315;28;19939;-53
2023/06/22 14:06:47;;;;;;;;;;;25.10;95.10;;;;;;5057004;28;19920;-48
2023/06/22 14:09:12;;;;;;;;;;;25.10;94.60;;;;;;5054192;28;19924;-52